Juneau, Alaska
Current Conditions -  °F | °C
As of 11:53 PM on Sunday 21 Dec 2014 (Local Time) from PAJN Reporting Station
Light Rain Light Rain  
Wind Chill: 30°   Ceiling: 3300
Heat Index: 38°   Visibility: 10mi
Dew Point: 36°   Wind: 12mph
Humidity: 93%   Direction: 90°E
Pressure: 29.76"   Gusts: NA
Location:  58.37°N, 134.57°W
Report Text: PAJN 220853Z 09010KT 10SM -RA FEW006 BKN033 OVC050 03/02 A2976 RMK AO2 RAB29 SLP076 P0000 60000 T00330022 400390011 51036
Loading
Personal Weather Stations






























Interactive Weather Map New forecast layout! Learn more

10-Day Weather Forecast

Advertisements
Track Severe Weather on mobile